OCREC2019 - SHORT COURSE
OCR EUROPEAN CHAMPIONSHIPS
Organizator : Stowarzyszenie Biegów Przeszkodowych OCR Polska
Data : 2019-06-27
Miejsce : Gdynia
Dystans : 5 km
Zgłoszonych : 944
Wystartowało : 899
Nie ukończyło : 25
Ukończyło : 874
Na trasie : 0
Pełne wyniki :
Uproszczone :
Klasyfikacje w punktach pomiarowych: Start | 4.9km | Meta
Klasyfikacja wg czasu brutto.
MscZawodnikNumerKlubMiejscowośćKrajKategoriaMkatK/MCzas startuSpiker_OCR
4.9km
Czas
netto
5km
Czas
brutto
5km
Różn.Tempo
min/km
Tempo
km/h
        
1DINKELMAN Ruben 206M 25-291M 100:00:0100:40:2500:40:29.3500:40:30.85 8:057,4
2VANDEWALLE Billy 198M 25-292M 700:00:0100:43:2900:43:32.5000:43:33.95+00:03:038:426,9
3JANUSZEWSKI Bartosz 193M 25-293M 1100:00:0100:45:5700:46:00.8500:46:02.60+00:05:319:126,5
4HANYK Lukáš 204M 25-294M 1300:00:0100:46:1800:46:22.2500:46:23.80+00:05:529:166,5
5TOMASIK Alan 231NEXTREMEM 25-295M 2500:00:0100:48:3300:48:42.3500:48:43.85+00:08:139:446,2
6ZAKOLODKIN Roman 223Hero Race TeamM 25-296M 2600:00:0200:48:4300:48:48.4500:48:50.45+00:08:199:456,1
7DIECKMANN Jan-Philip 207M 25-297M 2700:00:0100:49:0400:49:07.6500:49:09.10+00:08:389:496,1
8BLANKENBURGH David 228M 25-298M 2800:00:0200:49:0200:49:07.4000:49:09.50+00:08:389:496,1
9MUSSCHE Frans 264M 25-299M 3800:00:0200:50:2600:50:31.6000:50:33.65+00:10:0210:065,9
10ZAWISTOWSKI Jakub 197M 25-2910M 4300:00:0200:51:0200:51:07.1500:51:09.15+00:10:3810:135,9
11PRYKOWSKI Tomasz 200xRunnersM 25-2911M 4800:00:0100:51:4400:51:47.6500:51:49.20+00:11:1810:215,8
12VLAM Thijs 263M 25-2912M 5000:00:0200:52:0400:52:11.8500:52:14.35+00:11:4310:265,7
13KONEWKA Jacek 196Husaria Race TeamM 25-2913M 5100:00:0100:52:1300:52:17.4500:52:18.85+00:11:4810:275,7
14GUIBERT Romain 219Team FranceM 25-2914M 5300:00:0200:52:2500:52:30.0500:52:32.05+00:12:0110:305,7
15CZERWIŃSKI Maciej 237Baltic SealsM 25-2915M 5800:00:0100:53:0400:53:07.0000:53:08.95+00:12:3810:375,6
16STIIG Jonathan 289M 25-2916M 7500:00:0400:55:1300:55:18.7500:55:23.45+00:14:5211:035,4
17VADZIM Shalkouski 209OCR BelarusM 25-2917M 7800:00:0300:55:2400:55:27.3000:55:31.00+00:15:0011:055,4
18BRZOSKWINIA Wojciech 201M 25-2918M 8000:00:0000:55:3000:55:35.7500:55:35.75+00:15:0411:075,4
19VIKTOROVICH Gruzdev Vladimir 221M 25-2919M 8100:00:0200:55:4300:55:47.6500:55:49.65+00:15:1811:095,4
20WITEK Piotr 274M 25-2920M 8300:00:0300:55:5400:55:58.3500:56:01.55+00:15:3011:115,4
21BRZOZOWSKI Filip 202Husaria Race TeamM 25-2921M 8400:00:0100:55:5800:56:01.6000:56:03.40+00:15:3211:125,4
22VERHEUL Paul Pieter Cornelis 297Atlas Outdoor TrainingM 25-2922M 9200:00:0300:56:3600:56:42.1500:56:45.50+00:16:1411:205,3
23JUSTESEN Simon 246Team SolidM 25-2923M 9500:00:0100:56:2000:57:00.9500:57:02.80+00:16:3111:245,3
24KRUCZKOWSKI Michał 194xRunnersM 25-2924M 9700:00:0100:57:0300:57:06.5500:57:08.10+00:16:3711:255,3
25ANTCZAK Marcin 199Nextreme / 17 Brygada ZmechanizowanaM 25-2925M 9900:00:0100:57:1400:57:19.8000:57:21.20+00:16:5011:285,2
26MĘDYGRAŁ Krystian 235M 25-2926M 10500:00:0100:58:0500:58:10.5500:58:12.00+00:17:4111:385,2
27POLYAKOV Oleg 220M 25-2927M 10600:00:0100:58:0700:58:13.5000:58:15.45+00:17:4411:385,2
28KRASOŃ Bartłomiej 272M 25-2928M 11500:00:0400:59:2200:59:26.0000:59:30.25+00:18:5911:535,0
29TOMAKA Tomasz 203Husaria Race TeamM 25-2929M 11800:00:0100:59:3800:59:43.4000:59:45.15+00:19:1411:565,0
30PÉREZ Sergio Gómez 212Egyptian racersM 25-2930M 12200:00:0101:00:1901:00:23.6001:00:25.10+00:19:5412:045,0
31HEŁMECKI Mateusz 270Koniuchy OCRM 25-2931M 12400:00:0301:00:3801:00:44.7501:00:48.10+00:20:1712:094,9
32YAROSLAV Slavushchev 261M 25-2932M 12700:00:0201:00:5601:01:00.4501:01:02.75+00:20:3112:124,9
33STAMATEL Sebastian 281SOCIOS SILESIAM 25-2933M 13100:00:0301:01:2501:01:30.2001:01:33.80+00:21:0212:184,9
34KEANE Josh 222TEAM MADNESSM 25-2934M 13800:00:0201:03:1401:03:17.7001:03:20.05+00:22:4912:394,7
35LEGANDER Simon 290M 25-2935M 14100:00:0301:03:5101:03:56.3501:04:00.05+00:23:2912:474,7
36LLAPASSET Victor 298M 25-2936M 14300:00:0301:03:5601:04:01.6501:04:05.25+00:23:3412:484,7
37LEJK Beniamin 277xRunnersM 25-2937M 14400:00:0301:04:0401:04:07.7001:04:11.15+00:23:4012:494,7
38BIRKENFELD Thorben 279M 25-2938M 14600:00:0401:04:0501:04:09.6001:04:13.80+00:23:4212:494,7
39VERLAAT Kees 286M 25-2939M 14900:00:0301:04:4901:04:54.6001:04:58.55+00:24:2712:594,6
40LENOIR Cyril 260M 25-2940M 15800:00:0101:07:2601:07:33.4501:07:34.90+00:27:0413:304,4
41MARTIN Darren 300M 25-2941M 16500:00:0301:09:3101:09:36.4501:09:39.50+00:29:0813:554,3
42VEPŘEK Martin 256M 25-2942M 16900:00:0201:10:3101:10:35.5501:10:37.65+00:30:0614:074,3
43HANSEN Jonas 259M 25-2943M 17000:00:0201:10:3301:10:39.0001:10:41.45+00:30:1014:074,2
44RACZEK Radosław 233Gorący Potok Team- Podhalańskie DzikiM 25-2944M 17300:00:0101:11:3501:11:40.0001:11:41.75+00:31:1014:204,2
45SCHWEIGERT Matthias 288M 25-2945M 18000:00:0301:12:4601:12:51.7001:12:54.90+00:32:2414:344,1
46FIGUEIREDO Rui Pedro Cruz 213M 25-2946M 20400:00:0101:17:5001:18:08.1001:18:09.90+00:37:3915:373,8
47BASIAK Michał 273Hardcorowe WychylylybymyM 25-2947M 29500:00:0301:39:2901:39:34.8001:39:38.55+00:59:0719:553,0
48LARSSON Toni 282SOCRAM 25-2948M 29800:00:0301:40:3101:40:35.2501:40:39.05+01:00:0820:073,0
49PACIOREK Piotr 269Husaria Race TeamM 25-2949M 30000:00:0301:41:3001:41:34.9001:41:38.25+01:01:0720:193,0
50PEÑA Miguel 252M 25-2950M 32100:00:0201:54:0501:54:10.9501:54:13.35+01:13:4222:502,6
51CHRISTOPHER Bailly 218M 25-2951M 32400:00:0101:56:1001:56:24.2001:56:25.75+01:15:5423:162,6
52JACIÓW Paweł 275WATAHAM 25-2952M 32800:00:0401:58:3801:58:58.8001:59:02.85+01:18:3223:472,5
53PEDERSEN Peder Ejsing 294OCRHolstebroM 25-2953M 34400:00:0302:10:2802:10:33.0002:10:36.95+01:30:0626:062,3
54RAYNAUD Jimmy 240TR1BU OCRM 25-2954M 35500:00:0102:15:4002:15:44.9502:15:46.55+01:35:1527:092,2
55CRESPO Antonio Rubio 254M 25-2955M 36000:00:0202:18:2702:18:31.3502:18:33.85+01:38:0327:422,2
56TRUJILLO Fernando Pajuelo 242M 25-2956M 36500:00:0202:22:0002:22:05.3502:22:07.60+01:41:3628:252,1
57FISCHER Oliver 293M 25-2957M 36600:00:0302:23:1302:23:18.3002:23:21.95+01:42:5128:392,1
58KHALEF Dali 195TEAM MADNESSM 25-2958M 37800:00:0202:28:3302:28:38.7502:28:41.35+01:48:1029:432,0
Przekroczony limit czasu: 02:30:00
59KOLEGOWICZ Damian 276M 25-2959M 38300:00:0302:34:0902:34:13.8002:34:17.45+01:53:4630:501,9
60RODRIGUES Alexandre 238M 25-2960M 39200:00:0203:29:4103:29:50.5503:29:53.30+02:49:2241:581,4
Niesklasyfikowani
DNCOCHERETIUK Andrii 225M 25-2900:00:0101:16:2301:16:29.5501:16:31.350:003,9
DNCBENICEWICZ Kacper 257M 25-2900:00:0101:26:5601:27:02.7501:27:04.600:003,4
DNCSARABUN Nazar 265M 25-2900:00:0101:32:5901:33:05.5501:33:07.450:003,2
DNCCHILDS Jake 227M 25-2900:00:0201:33:5901:34:07.6501:34:10.400:003,2
DNCMANTYCKI Rafał 234M 25-2900:00:0101:40:1601:40:23.4501:40:25.350:003,0
DNCBRONS Sonny 302Family Fit Indoor SurvivalM 25-2900:00:0301:44:2601:44:35.1501:44:38.350:002,9
DNCSPRUTTA Mateusz 303Carbon OCR Racing TeamM 25-2900:00:0301:44:1501:44:35.2501:44:38.450:002,9
DNCKORTHOUT Bruce 296Atlas Outdoor TrainingM 25-2900:00:0301:47:3601:47:42.6501:47:45.850:002,8
DNCKASULIS Gerald 250TEAM MADNESSM 25-2900:00:0101:48:4801:48:54.5001:48:55.700:002,8
DNCALEXANDRE Renato 251M 25-2900:00:0201:52:1401:52:22.7001:52:25.400:002,7
DNCROEFFAERS Sander 241M 25-2900:00:0101:53:3901:53:50.0001:53:51.450:002,6
DNCMARTÍNEZ Rafael 217M 25-2900:00:0101:54:3401:54:40.7501:54:42.150:002,6
DNCFELLDIN Markus 247M 25-2900:00:0201:55:5701:56:03.7001:56:06.450:002,6
DNCPCHELIAKOV Aleksandr 205GAZPROMBANK OCR TEAMM 25-2900:00:0201:58:0101:58:06.5501:58:09.150:002,5
DNCOHLSSON Jesper 245Karlshamn OCRM 25-2900:00:0202:01:3102:01:40.8002:01:42.900:002,5
DNCCURDY Maxence 299InvictaM 25-2900:00:0402:04:4602:04:55.4002:04:59.450:002,4
DNCRECIO Diego Serrano 291M 25-2900:00:0302:07:4002:07:46.8502:07:50.100:002,3
DNCOSTERMEIER Gabriel 266M 25-2900:00:0202:08:3202:08:45.3502:08:47.400:002,3
DNCMAZUEL Alexandre 244TEAM SENZUM 25-2900:00:0102:08:4802:08:55.6502:08:57.600:002,3
DNCLÜPKE Sebastian 214Herakliden-Team DeutschlandM 25-2900:00:0202:09:1702:09:25.3002:09:27.450:002,3
DNCJOHANSSON Tom 216M 25-2900:00:0202:13:0002:13:16.5002:13:18.850:002,3
DNCJAGER Robin De 283M 25-2900:00:0302:13:3502:13:43.5502:13:47.150:002,2
DNCTORESÄTER Ludvig "Luddet" 249OCR ELITE APPARELM 25-2900:00:0202:14:2702:14:33.8502:14:36.000:002,2
DNCJOHANSEN Philip Hust 224M 25-2900:00:0202:14:4002:14:49.5502:14:51.550:002,2
DNCKANSTRUP Nicolai 226M 25-2900:00:0202:16:2602:16:36.1502:16:38.300:002,2
DNCSVENSSON Nicklas 243M 25-2900:00:0202:18:5902:19:06.6502:19:09.200:002,2
DNCČÍŽEK Jan 268M 25-2900:00:0402:25:0402:25:14.4002:25:18.700:002,1
DNCPHILLIPS Alastair 248M 25-2900:00:0202:25:5902:26:07.2502:26:09.950:002,1
DNCJOBANPUTRA Mayoor 278M 25-2900:00:0202:27:3202:27:41.5002:27:44.350:002,0
DNCNOWAK Lukasz 262Ocr FightersM 25-2900:00:0202:28:3302:28:40.0002:28:42.250:002,0
DNCSEREDA Evgeniy 208M 25-2900:00:0202:32:1102:32:18.1502:32:20.150:002,0
DNCARONSSON Alexander 215M 25-2900:00:0202:35:0902:35:28.2002:35:30.800:001,9
DNCDAVIDSSON Richard 284MIT Tough TeamM 25-2900:00:0402:41:4102:41:50.2502:41:54.300:001,9
DNCBRORSSON Sebastian 287M 25-2900:00:0302:42:2502:42:32.2502:42:36.150:001,8
DNCMARTOS Eduardo 255Racers Legion AndalucíaM 25-2900:00:0103:03:2103:03:32.9503:03:34.800:001,6
DNCGINON Loïc 239InvictaM 25-2900:00:0203:14:2303:14:28.4503:14:31.200:001,5
DNCKOZIOŁ Kamil 232M 25-2900:00:0203:31:1903:31:38.1503:31:40.750:001,4
DNCNAVARRO Cristian Manuel Madrid 211M 25-2900:00:0103:35:2503:35:50.7503:35:52.550:001,4
DNCBELLIDO David Fernández 210M 25-2900:00:0203:35:3603:35:50.6003:35:52.600:001,4
DNCKAŁUŻNY Michał 280Dirty SparrowsM 25-2900:00:0304:00:4104:00:47.2004:00:51.050:001,2
DNCWUNDERLICH Tobias 292Unterfranken VikingsM 25-2900:00:0204:31:5404:32:04.0504:32:06.950:001,1
NUTIL Michal 253M 25-29DNF DNF DNF DNF--
BEURER Stephan 258M 25-29DNF DNF DNF DNF--
Znaleziono 103 wynik(ów)